Time;durP1;ratioP1;P1;durP2;ratioP2;P2;SDS_P1;SDS_P2;PMS_P1;PMS_P2;Temp;Humidity;BMP_temperature;BMP_pressure;BME280_temperature;BME280_humidity;BME280_pressure;Samples;Min_cycle;Max_cycle;Signal;HPM_P1;HPM_P2
2022/04/04 00:01:42;;;;;;;22.30;13.93;;;-0.90;99.90;;;;;;5012439;28;20564;-65
2022/04/04 00:04:10;;;;;;;18.83;13.03;;;-0.90;99.90;;;;;;5011844;28;20481;-66
2022/04/04 00:06:37;;;;;;;16.63;13.43;;;-0.90;99.90;;;;;;5012956;28;20446;-66
2022/04/04 00:09:04;;;;;;;21.17;15.03;;;-0.90;99.90;;;;;;5012744;28;20444;-66
2022/04/04 00:11:31;;;;;;;19.23;14.90;;;-1.00;99.90;;;;;;5012395;28;20561;-65
2022/04/04 00:13:57;;;;;;;16.90;13.33;;;-1.10;99.90;;;;;;5012410;28;20446;-65
2022/04/04 00:16:24;;;;;;;18.10;14.03;;;-1.10;99.90;;;;;;5011859;28;20528;-66
2022/04/04 00:18:51;;;;;;;16.10;12.30;;;-1.10;99.90;;;;;;5012883;28;20797;-67
2022/04/04 00:21:20;;;;;;;17.93;12.40;;;-1.10;99.90;;;;;;5012230;28;20461;-66
2022/04/04 00:23:47;;;;;;;21.37;14.50;;;-1.10;99.90;;;;;;5012334;28;20548;-65
2022/04/04 00:26:13;;;;;;;18.77;13.00;;;-1.10;99.90;;;;;;5011644;28;20450;-67
2022/04/04 00:28:40;;;;;;;17.77;13.27;;;-1.10;99.90;;;;;;5012200;28;20453;-65
2022/04/04 00:31:07;;;;;;;17.97;14.03;;;-1.20;99.90;;;;;;5011674;28;20449;-66
2022/04/04 00:33:34;;;;;;;21.07;14.73;;;-1.20;99.90;;;;;;5012346;28;20521;-65
2022/04/04 00:36:02;;;;;;;18.70;14.53;;;-1.20;99.90;;;;;;5011343;28;20449;-66
2022/04/04 00:38:31;;;;;;;20.60;14.17;;;-1.30;99.90;;;;;;5011881;28;20528;-66
2022/04/04 00:40:58;;;;;;;17.57;13.40;;;-1.20;99.90;;;;;;5011722;28;20438;-66
2022/04/04 00:43:25;;;;;;;19.10;14.53;;;-1.20;99.90;;;;;;5011988;28;20488;-66
2022/04/04 00:45:52;;;;;;;18.10;13.97;;;-1.30;99.90;;;;;;5010939;28;20500;-66
2022/04/04 00:48:19;;;;;;;17.70;13.03;;;-1.30;99.90;;;;;;5012024;28;20448;-65
2022/04/04 00:50:45;;;;;;;18.77;13.60;;;-1.40;99.90;;;;;;5011675;28;20814;-65
2022/04/04 00:53:12;;;;;;;17.50;12.90;;;-1.40;99.90;;;;;;5012224;28;20462;-66
2022/04/04 00:55:41;;;;;;;18.30;14.80;;;-1.40;99.90;;;;;;5011260;28;20444;-66
2022/04/04 00:58:09;;;;;;;16.90;13.07;;;-1.30;99.90;;;;;;5011607;28;20812;-64
2022/04/04 01:00:36;;;;;;;17.23;13.57;;;-1.20;99.90;;;;;;5010898;28;20446;-65
2022/04/04 01:03:03;;;;;;;22.17;14.90;;;-1.20;99.90;;;;;;5011731;28;20466;-66
2022/04/04 01:05:30;;;;;;;19.40;14.30;;;-1.20;99.90;;;;;;5011170;28;20441;-65
2022/04/04 01:07:57;;;;;;;20.60;14.97;;;-1.20;99.90;;;;;;5011521;28;20932;-66
2022/04/04 01:10:24;;;;;;;18.97;14.90;;;-1.30;99.90;;;;;;5011615;28;20924;-65
2022/04/04 01:12:54;;;;;;;23.97;15.60;;;-1.30;99.90;;;;;;5011389;28;20472;-65
2022/04/04 01:15:23;;;;;;;18.83;14.27;;;-1.30;99.90;;;;;;5011103;28;20448;-65
2022/04/04 01:17:50;;;;;;;18.47;14.17;;;-1.40;99.90;;;;;;5012150;28;20530;-66
2022/04/04 01:20:17;;;;;;;18.33;13.80;;;-1.50;99.90;;;;;;5012001;28;20438;-66
2022/04/04 01:22:47;;;;;;;16.93;12.70;;;-1.50;99.90;;;;;;5011246;28;20831;-66
2022/04/04 01:25:16;;;;;;;16.40;12.20;;;-1.50;99.90;;;;;;5010704;28;20481;-66
2022/04/04 01:27:46;;;;;;;16.83;13.27;;;-1.60;99.90;;;;;;5011396;28;20445;-66
2022/04/04 01:30:13;;;;;;;18.60;13.10;;;-1.60;99.90;;;;;;5011613;28;20457;-65
2022/04/04 01:32:41;;;;;;;17.53;13.47;;;-1.60;99.90;;;;;;5010947;28;21035;-64
2022/04/04 01:35:09;;;;;;;18.97;14.60;;;-1.60;99.90;;;;;;5010583;28;20430;-65
2022/04/04 01:37:36;;;;;;;18.00;14.70;;;-1.70;99.90;;;;;;5011171;28;20445;-65
2022/04/04 01:40:04;;;;;;;18.10;13.27;;;-1.70;99.90;;;;;;5010735;28;21071;-65
2022/04/04 01:42:32;;;;;;;17.30;14.07;;;-1.80;99.90;;;;;;5010573;28;20466;-65
2022/04/04 01:44:59;;;;;;;19.27;12.87;;;-1.80;99.90;;;;;;5010016;28;20480;-66
2022/04/04 01:47:26;;;;;;;20.20;14.17;;;-1.70;99.90;;;;;;5010785;28;20456;-66
2022/04/04 01:49:53;;;;;;;19.90;15.37;;;-1.70;99.90;;;;;;5010829;28;20541;-65
2022/04/04 01:52:19;;;;;;;17.83;13.27;;;-1.70;99.90;;;;;;5010218;28;20541;-67
2022/04/04 01:54:46;;;;;;;17.80;14.10;;;-1.80;99.90;;;;;;5010208;28;20537;-67
2022/04/04 01:57:13;;;;;;;19.53;14.93;;;-1.80;99.90;;;;;;5010500;28;20473;-66
2022/04/04 01:59:41;;;;;;;19.93;13.57;;;-1.90;99.90;;;;;;5010642;28;20810;-67
2022/04/04 02:02:08;;;;;;;18.03;14.07;;;-1.90;99.90;;;;;;5010269;28;20472;-65
2022/04/04 02:04:35;;;;;;;16.30;14.10;;;-2.00;99.90;;;;;;5009564;28;20516;-65
2022/04/04 02:07:02;;;;;;;16.80;13.17;;;-1.90;99.90;;;;;;5010457;28;20442;-66
2022/04/04 02:09:29;;;;;;;23.37;15.93;;;-1.90;99.90;;;;;;5010800;28;20445;-67
2022/04/04 02:11:56;;;;;;;18.53;14.50;;;-1.90;99.90;;;;;;5009774;28;20998;-66
2022/04/04 02:14:22;;;;;;;16.70;13.27;;;-2.00;99.90;;;;;;5009844;28;21099;-65
2022/04/04 02:16:51;;;;;;;19.40;14.90;;;-1.90;99.90;;;;;;5010704;28;20438;-66
2022/04/04 02:19:18;;;;;;;16.97;12.90;;;-1.90;99.90;;;;;;5010331;28;20855;-66
2022/04/04 02:21:45;;;;;;;16.27;13.73;;;-2.00;99.90;;;;;;5010276;28;20458;-66
2022/04/04 02:24:12;;;;;;;14.50;13.03;;;-1.90;99.90;;;;;;5009446;28;20481;-65
2022/04/04 02:26:39;;;;;;;18.80;14.73;;;-1.90;99.90;;;;;;5010265;28;20442;-66
2022/04/04 02:29:06;;;;;;;18.40;13.10;;;-1.90;99.90;;;;;;5010418;28;20442;-65
2022/04/04 02:31:33;;;;;;;17.83;14.90;;;-2.00;99.90;;;;;;5009877;28;20512;-66
2022/04/04 02:34:01;;;;;;;17.00;13.83;;;-2.00;99.90;;;;;;5010315;28;20446;-66
2022/04/04 02:36:28;;;;;;;16.07;13.43;;;-2.00;99.90;;;;;;5010226;28;20533;-66
2022/04/04 02:38:55;;;;;;;16.07;12.70;;;-2.00;99.90;;;;;;5010011;28;20460;-65
2022/04/04 02:41:21;;;;;;;17.13;13.10;;;-1.90;99.90;;;;;;5009892;28;20464;-65
2022/04/04 02:43:48;;;;;;;17.70;13.53;;;-2.00;99.90;;;;;;5010344;28;20438;-66
2022/04/04 02:46:15;;;;;;;14.40;11.97;;;-2.10;99.90;;;;;;5009574;28;20446;-66
2022/04/04 02:48:42;;;;;;;18.60;13.80;;;-2.10;99.90;;;;;;5010255;28;20801;-66
2022/04/04 02:51:10;;;;;;;17.40;12.87;;;-2.10;99.90;;;;;;5009974;28;20454;-66
2022/04/04 02:53:37;;;;;;;16.17;12.13;;;-2.10;99.90;;;;;;5010291;28;20437;-65
2022/04/04 02:58:48;;;;;;;14.83;11.70;;;-2.10;99.90;;;;;;5010088;28;20491;-65
2022/04/04 03:01:16;;;;;;;18.03;13.23;;;-2.10;99.90;;;;;;5009595;28;21330;-65
2022/04/04 03:03:42;;;;;;;15.17;13.57;;;-2.10;99.90;;;;;;5010330;28;20437;-65
2022/04/04 03:06:11;;;;;;;19.80;13.30;;;-2.10;99.90;;;;;;5009803;28;20441;-64
2022/04/04 03:08:38;;;;;;;17.33;14.10;;;-2.10;99.90;;;;;;5012487;28;20449;-65
2022/04/04 03:11:05;;;;;;;19.67;14.33;;;-2.10;99.90;;;;;;5009842;28;20533;-65
2022/04/04 03:13:31;;;;;;;21.23;15.60;;;-2.00;99.90;;;;;;5009753;28;20450;-65
2022/04/04 03:15:58;;;;;;;22.30;16.83;;;-1.90;99.90;;;;;;5009092;28;20816;-66
2022/04/04 03:18:26;;;;;;;21.50;17.67;;;-1.80;99.90;;;;;;5010027;28;20445;-65
2022/04/04 03:20:54;;;;;;;25.50;17.77;;;-1.70;99.90;;;;;;5009538;28;20446;-66
2022/04/04 03:23:22;;;;;;;22.30;18.40;;;-1.70;99.90;;;;;;5011331;28;21038;-66
2022/04/04 03:25:49;;;;;;;21.90;17.33;;;-1.60;99.90;;;;;;5012479;28;20474;-64
2022/04/04 03:28:16;;;;;;;25.37;17.63;;;-1.60;99.90;;;;;;5013049;28;20464;-64
2022/04/04 03:30:43;;;;;;;24.87;17.83;;;-1.50;99.90;;;;;;5012890;28;21014;-66
2022/04/04 03:33:10;;;;;;;24.40;19.73;;;-1.50;99.90;;;;;;5013213;28;20469;-66
2022/04/04 03:35:37;;;;;;;20.63;16.10;;;-1.50;99.90;;;;;;5012364;28;20473;-66
2022/04/04 03:38:07;;;;;;;22.53;17.87;;;-1.50;99.90;;;;;;5013276;28;20446;-66
2022/04/04 03:40:36;;;;;;;22.30;16.40;;;-1.50;99.90;;;;;;5013246;28;20545;-66
2022/04/04 03:43:03;;;;;;;23.83;18.70;;;-1.50;99.90;;;;;;5013044;28;20553;-66
2022/04/04 03:45:31;;;;;;;26.47;18.50;;;-1.50;99.90;;;;;;5012777;28;20576;-64
2022/04/04 03:47:59;;;;;;;24.97;18.63;;;-1.50;99.90;;;;;;5013418;28;20473;-65
2022/04/04 03:50:27;;;;;;;26.60;18.80;;;-1.50;99.90;;;;;;5013191;28;20437;-65
2022/04/04 03:52:55;;;;;;;24.00;17.90;;;-1.40;99.90;;;;;;5011577;28;21022;-66
2022/04/04 03:55:24;;;;;;;26.43;20.20;;;-1.40;99.90;;;;;;5010339;28;20445;-65
2022/04/04 03:57:53;;;;;;;21.60;16.70;;;-1.40;99.90;;;;;;5013099;28;20450;-65
2022/04/04 04:00:21;;;;;;;23.83;17.10;;;-1.30;99.90;;;;;;5012862;28;20778;-66
2022/04/04 04:02:49;;;;;;;21.47;18.73;;;-1.40;99.90;;;;;;5012388;28;20887;-65
2022/04/04 04:05:16;;;;;;;22.50;18.13;;;-1.40;99.90;;;;;;5012311;28;20481;-65
2022/04/04 04:07:43;;;;;;;25.00;17.93;;;-1.40;99.90;;;;;;5012644;28;20533;-66
2022/04/04 04:10:12;;;;;;;23.77;16.70;;;-1.40;99.90;;;;;;5012890;28;20442;-65
2022/04/04 04:12:40;;;;;;;26.60;17.70;;;-1.40;99.90;;;;;;5012271;28;20462;-66
2022/04/04 04:15:09;;;;;;;24.23;17.53;;;-1.40;99.90;;;;;;5011846;28;20500;-66
2022/04/04 04:17:36;;;;;;;24.10;17.83;;;-1.40;99.90;;;;;;5012596;28;20449;-65
2022/04/04 04:20:23;;;;;;;26.50;19.30;;;-1.40;99.90;;;;;;5012298;28;20477;-66
2022/04/04 04:22:53;;;;;;;22.60;16.60;;;-1.40;99.90;;;;;;5012067;28;20536;-67
2022/04/04 04:25:20;;;;;;;20.47;17.20;;;-1.40;99.90;;;;;;5011381;28;20484;-66
2022/04/04 04:27:47;;;;;;;24.90;18.17;;;-1.50;99.90;;;;;;5012279;28;20450;-65
2022/04/04 04:30:16;;;;;;;22.07;17.90;;;-1.40;99.90;;;;;;5012314;28;20914;-65
2022/04/04 04:32:44;;;;;;;22.77;17.50;;;-1.40;99.90;;;;;;5011555;28;20469;-65
2022/04/04 04:35:12;;;;;;;23.50;17.40;;;-1.40;99.90;;;;;;5010494;28;20473;-66
2022/04/04 04:37:39;;;;;;;26.60;18.20;;;-1.50;99.90;;;;;;5011986;28;20449;-64
2022/04/04 04:40:07;;;;;;;19.73;15.93;;;-1.50;99.90;;;;;;5009228;28;21268;-66
2022/04/04 04:42:34;;;;;;;20.43;16.93;;;-1.50;99.90;;;;;;5010319;28;20845;-68
2022/04/04 04:45:01;;;;;;;22.57;17.57;;;-1.50;99.90;;;;;;5010738;28;20482;-66
2022/04/04 04:47:30;;;;;;;21.23;17.23;;;-1.50;99.90;;;;;;5017689;28;20549;-67
2022/04/04 04:49:57;;;;;;;18.47;14.87;;;-1.60;99.90;;;;;;5011368;28;20499;-66
2022/04/04 04:52:24;;;;;;;22.23;16.20;;;-1.60;99.90;;;;;;5011196;28;20458;-66
2022/04/04 04:54:52;;;;;;;20.10;15.77;;;-1.70;99.90;;;;;;5010476;28;20442;-66
2022/04/04 04:57:19;;;;;;;19.90;16.70;;;-1.60;99.90;;;;;;5011150;28;20949;-67
2022/04/04 04:59:46;;;;;;;23.50;18.23;;;-1.70;99.90;;;;;;5011100;28;20461;-67
2022/04/04 05:02:13;;;;;;;20.03;16.07;;;-1.70;99.90;;;;;;5011139;28;20458;-66
2022/04/04 05:04:41;;;;;;;20.17;17.00;;;-1.70;99.90;;;;;;5010290;28;20444;-68
2022/04/04 05:07:08;;;;;;;23.13;16.90;;;-1.70;99.90;;;;;;5011275;28;20446;-67
2022/04/04 05:09:35;;;;;;;19.67;16.80;;;-1.70;99.90;;;;;;5011291;28;20446;-67
2022/04/04 05:12:02;;;;;;;19.70;15.67;;;-1.60;99.90;;;;;;5009491;28;20556;-67
2022/04/04 05:14:29;;;;;;;19.67;14.97;;;-1.60;99.90;;;;;;5008232;28;20520;-67
2022/04/04 05:16:56;;;;;;;20.40;14.90;;;-1.60;99.90;;;;;;5010971;28;20465;-67
2022/04/04 05:19:23;;;;;;;19.90;14.63;;;-1.50;99.90;;;;;;5007605;28;21039;-67
2022/04/04 05:21:52;;;;;;;16.80;14.17;;;-1.50;99.90;;;;;;5008624;28;20820;-66
2022/04/04 05:24:19;;;;;;;21.60;15.50;;;-1.50;99.90;;;;;;5008467;28;20430;-66
2022/04/04 05:26:46;;;;;;;18.90;14.77;;;-1.50;99.90;;;;;;5008952;28;20469;-66
2022/04/04 05:29:15;;;;;;;19.70;14.73;;;-1.40;99.90;;;;;;5009124;28;20497;-66
2022/04/04 05:31:42;;;;;;;17.17;14.17;;;-1.40;99.90;;;;;;5008682;28;20545;-66
2022/04/04 05:34:08;;;;;;;21.87;14.93;;;-1.30;99.90;;;;;;5008514;28;20528;-66
2022/04/04 05:36:35;;;;;;;16.67;13.90;;;-1.30;99.90;;;;;;5008958;28;20446;-67
2022/04/04 05:39:05;;;;;;;18.33;14.00;;;-1.30;99.90;;;;;;5009885;28;20450;-66
2022/04/04 05:41:36;;;;;;;17.93;14.00;;;-1.20;99.90;;;;;;5010188;28;20466;-67
2022/04/04 05:44:04;;;;;;;17.87;14.33;;;-1.20;99.90;;;;;;5009751;28;20955;-65
2022/04/04 05:46:31;;;;;;;17.80;14.10;;;-1.20;99.90;;;;;;5008997;28;20481;-67
2022/04/04 05:48:58;;;;;;;18.57;14.37;;;-1.10;99.90;;;;;;4998988;28;20520;-67
2022/04/04 05:51:25;;;;;;;18.60;12.77;;;-1.10;99.90;;;;;;5002356;28;20523;-67
2022/04/04 05:53:52;;;;;;;18.97;13.63;;;-1.10;99.90;;;;;;5003514;28;20454;-67
2022/04/04 05:56:21;;;;;;;18.37;14.00;;;-1.10;99.90;;;;;;5002615;28;20858;-67
2022/04/04 05:58:48;;;;;;;19.40;14.10;;;-1.00;99.90;;;;;;5003778;28;20478;-65
2022/04/04 06:01:15;;;;;;;18.30;13.50;;;-0.90;99.90;;;;;;5002845;28;20489;-67
2022/04/04 06:03:42;;;;;;;16.93;13.67;;;-0.80;99.90;;;;;;5010346;28;20464;-67
2022/04/04 06:06:09;;;;;;;19.87;14.10;;;-0.80;99.90;;;;;;5001236;28;20934;-67
2022/04/04 06:08:36;;;;;;;19.07;13.70;;;-0.80;99.90;;;;;;5010216;28;20922;-67
2022/04/04 06:11:03;;;;;;;14.70;12.67;;;-0.70;99.90;;;;;;5003080;28;20461;-67
2022/04/04 06:13:32;;;;;;;20.87;14.03;;;-0.70;99.90;;;;;;5012090;28;20483;-66
2022/04/04 06:15:59;;;;;;;19.63;14.57;;;-0.70;99.90;;;;;;5009461;28;20452;-67
2022/04/04 06:18:26;;;;;;;15.73;13.80;;;-0.70;99.90;;;;;;5003748;28;20462;-67
2022/04/04 06:20:53;;;;;;;17.17;13.40;;;-0.50;99.90;;;;;;5019090;28;20528;-67
2022/04/04 06:23:20;;;;;;;14.47;12.97;;;-0.50;99.90;;;;;;5022174;28;20441;-67
2022/04/04 06:25:49;;;;;;;17.57;13.37;;;-0.40;99.90;;;;;;5002878;28;20486;-67
2022/04/04 06:28:16;;;;;;;15.10;12.03;;;-0.30;99.90;;;;;;5008498;28;20460;-67
2022/04/04 06:30:44;;;;;;;14.37;12.03;;;-0.20;99.90;;;;;;5008639;28;20512;-67
2022/04/04 06:33:11;;;;;;;16.37;11.63;;;-0.10;99.90;;;;;;5001721;28;20489;-68
2022/04/04 06:35:38;;;;;;;16.60;12.43;;;-0.10;99.90;;;;;;5003396;28;20979;-67
2022/04/04 06:38:05;;;;;;;13.27;11.30;;;0.00;99.90;;;;;;5002536;28;20458;-67
2022/04/04 06:40:32;;;;;;;17.23;12.60;;;0.10;99.90;;;;;;5007383;28;20548;-68
2022/04/04 06:42:59;;;;;;;17.73;13.43;;;0.20;99.90;;;;;;5008170;28;20486;-65
2022/04/04 06:45:26;;;;;;;14.57;11.43;;;0.20;99.90;;;;;;5000131;28;20481;-68
2022/04/04 06:47:55;;;;;;;15.20;12.50;;;0.30;99.90;;;;;;5009651;28;21052;-67
2022/04/04 06:50:23;;;;;;;15.83;12.03;;;0.30;99.90;;;;;;5015628;28;20465;-68
2022/04/04 06:52:52;;;;;;;13.00;10.63;;;0.40;99.90;;;;;;5003007;28;20486;-68
2022/04/04 06:55:19;;;;;;;16.03;11.80;;;0.50;99.90;;;;;;5001960;28;20501;-68
2022/04/04 06:57:46;;;;;;;14.70;12.30;;;0.70;99.90;;;;;;5011341;28;20471;-68
2022/04/04 07:00:16;;;;;;;13.67;11.50;;;0.70;99.90;;;;;;5014908;28;20446;-68
2022/04/04 07:02:43;;;;;;;14.90;11.80;;;0.80;99.90;;;;;;5013665;28;20462;-68
2022/04/04 07:05:11;;;;;;;14.93;12.17;;;0.90;99.90;;;;;;5013048;28;20468;-69
2022/04/04 07:07:38;;;;;;;13.90;11.83;;;1.00;99.90;;;;;;5012752;28;20446;-67
2022/04/04 07:10:06;;;;;;;15.07;11.30;;;1.10;99.90;;;;;;5011623;28;20475;-68
2022/04/04 07:12:33;;;;;;;14.73;11.23;;;1.20;99.90;;;;;;5011648;28;20465;-68
2022/04/04 07:15:00;;;;;;;14.57;11.93;;;1.20;99.90;;;;;;5012175;28;20458;-68
2022/04/04 07:17:27;;;;;;;14.90;11.47;;;1.30;99.90;;;;;;5012255;28;20476;-68
2022/04/04 07:19:54;;;;;;;12.40;10.43;;;1.40;99.90;;;;;;5013301;28;20483;-68
2022/04/04 07:22:22;;;;;;;13.80;11.33;;;1.50;99.90;;;;;;5013026;28;20465;-68
2022/04/04 07:24:50;;;;;;;13.87;10.70;;;1.50;99.90;;;;;;5012545;28;20451;-68
2022/04/04 07:27:17;;;;;;;14.40;11.37;;;1.60;99.90;;;;;;5013079;28;20485;-68
2022/04/04 07:29:43;;;;;;;14.73;11.67;;;1.70;99.90;;;;;;5012927;28;20500;-67
2022/04/04 07:32:10;;;;;;;15.10;12.23;;;1.80;99.90;;;;;;5012873;28;20462;-68
2022/04/04 07:34:38;;;;;;;12.53;9.87;;;2.00;99.90;;;;;;5012501;28;20456;-68
2022/04/04 07:37:05;;;;;;;11.90;10.67;;;2.10;99.90;;;;;;5013161;28;20444;-68
2022/04/04 07:39:34;;;;;;;14.13;11.67;;;2.20;99.90;;;;;;5013015;28;20468;-68
2022/04/04 07:42:01;;;;;;;17.80;10.40;;;2.20;99.90;;;;;;5012597;28;20868;-67
2022/04/04 07:44:28;;;;;;;14.77;11.37;;;2.30;99.90;;;;;;5012149;28;20442;-68
2022/04/04 07:46:54;;;;;;;14.40;11.57;;;2.40;99.90;;;;;;5013038;28;20492;-68
2022/04/04 07:49:22;;;;;;;13.83;10.67;;;2.50;99.90;;;;;;5012996;28;20466;-69
2022/04/04 07:51:48;;;;;;;13.67;10.27;;;2.60;99.90;;;;;;5012338;28;20552;-68
2022/04/04 07:54:15;;;;;;;13.00;10.07;;;2.70;99.90;;;;;;5012108;28;20923;-68
2022/04/04 07:56:44;;;;;;;14.90;10.93;;;2.70;99.90;;;;;;5012547;28;21093;-68
2022/04/04 07:59:11;;;;;;;12.67;10.50;;;2.80;99.90;;;;;;5012550;28;20552;-68
2022/04/04 08:01:38;;;;;;;13.27;11.13;;;2.90;99.90;;;;;;5011912;28;20439;-68
2022/04/04 08:04:05;;;;;;;13.40;10.23;;;3.10;99.90;;;;;;5011827;28;20203;-68
2022/04/04 08:06:32;;;;;;;11.40;9.40;;;3.20;99.90;;;;;;5011924;28;20481;-68
2022/04/04 08:08:59;;;;;;;11.70;8.60;;;3.30;99.90;;;;;;5011903;28;20457;-68
2022/04/04 08:11:25;;;;;;;9.93;8.43;;;3.50;99.90;;;;;;5011161;28;20465;-66
2022/04/04 08:13:54;;;;;;;10.57;8.47;;;3.60;99.90;;;;;;5012403;28;20450;-67
2022/04/04 08:16:22;;;;;;;10.70;8.80;;;3.70;99.90;;;;;;5011899;28;20446;-67
2022/04/04 08:18:49;;;;;;;10.70;8.30;;;3.90;99.90;;;;;;5012421;28;20457;-66
2022/04/04 08:21:16;;;;;;;10.97;8.97;;;4.00;99.90;;;;;;5011838;28;20462;-67
2022/04/04 08:23:43;;;;;;;12.87;8.10;;;4.20;99.90;;;;;;5012134;28;21026;-66
2022/04/04 08:26:10;;;;;;;12.00;8.10;;;4.40;99.90;;;;;;5011085;28;20488;-66
2022/04/04 08:28:38;;;;;;;10.63;7.60;;;4.50;99.90;;;;;;5011995;28;20446;-68
2022/04/04 08:31:06;;;;;;;11.70;8.40;;;4.70;99.90;;;;;;5012036;28;20481;-68
2022/04/04 08:33:33;;;;;;;11.87;9.37;;;4.90;99.90;;;;;;5011615;28;20456;-67
2022/04/04 08:36:00;;;;;;;12.40;8.00;;;5.10;99.90;;;;;;5011157;28;20450;-67
2022/04/04 08:38:27;;;;;;;12.33;8.00;;;5.20;99.90;;;;;;5011781;28;20446;-68
2022/04/04 08:40:54;;;;;;;10.90;8.90;;;5.30;99.90;;;;;;5011889;28;20460;-67
2022/04/04 08:43:22;;;;;;;15.30;8.30;;;5.40;99.90;;;;;;5011940;28;20454;-67
2022/04/04 08:45:50;;;;;;;12.23;8.70;;;5.60;99.90;;;;;;5011254;28;20807;-67
2022/04/04 08:48:19;;;;;;;8.00;6.93;;;5.60;99.90;;;;;;5011974;28;20450;-67
2022/04/04 08:50:46;;;;;;;10.10;8.73;;;5.70;99.90;;;;;;5011746;28;20464;-67
2022/04/04 08:53:14;;;;;;;9.10;8.20;;;5.80;99.90;;;;;;5011288;28;20473;-66
2022/04/04 08:55:41;;;;;;;9.47;8.20;;;6.00;96.80;;;;;;5011093;28;20512;-66
2022/04/04 08:58:10;;;;;;;10.20;8.07;;;6.10;95.20;;;;;;5011758;28;20481;-67
2022/04/04 09:00:38;;;;;;;7.90;7.10;;;6.20;94.70;;;;;;5011625;28;20476;-67
2022/04/04 09:03:06;;;;;;;7.90;7.07;;;6.30;93.70;;;;;;5011140;28;21004;-66
2022/04/04 09:05:36;;;;;;;7.63;6.93;;;6.30;93.40;;;;;;5010490;28;20450;-67
2022/04/04 09:08:05;;;;;;;8.20;7.10;;;6.40;92.90;;;;;;5011495;28;20481;-66
2022/04/04 09:10:34;;;;;;;11.27;7.80;;;6.40;92.00;;;;;;5011558;28;20453;-67
2022/04/04 09:13:12;;;;;;;7.00;6.27;;;6.30;93.10;;;;;;5010872;28;20466;-67
2022/04/04 09:15:58;;;;;;;6.73;6.10;;;6.30;91.10;;;;;;5010491;28;20461;-68
2022/04/04 09:18:45;;;;;;;8.13;6.60;;;6.40;90.70;;;;;;5010778;28;20516;-67
2022/04/04 09:21:27;;;;;;;7.43;6.63;;;6.70;90.40;;;;;;5010774;28;20445;-68
2022/04/04 09:23:57;;;;;;;7.70;6.30;;;7.10;87.30;;;;;;5011070;28;20468;-66
2022/04/04 09:26:29;;;;;;;8.00;7.07;;;7.50;86.90;;;;;;5010070;28;21050;-66
2022/04/04 09:28:56;;;;;;;8.57;6.40;;;7.90;87.10;;;;;;5011177;28;20450;-67
2022/04/04 09:31:23;;;;;;;6.87;6.17;;;8.00;85.20;;;;;;5010372;28;20553;-66
2022/04/04 09:33:51;;;;;;;5.73;5.23;;;8.10;85.30;;;;;;5010845;28;20460;-66
2022/04/04 09:36:19;;;;;;;6.40;5.77;;;8.30;83.60;;;;;;5009940;28;20985;-66
2022/04/04 09:38:55;;;;;;;6.60;6.00;;;8.40;80.00;;;;;;5010597;28;20952;-67
2022/04/04 09:41:24;;;;;;;5.33;4.83;;;8.50;81.60;;;;;;5010209;28;20476;-66
2022/04/04 09:43:52;;;;;;;7.00;5.93;;;8.20;77.80;;;;;;5010786;28;20461;-66
2022/04/04 09:46:19;;;;;;;6.50;5.90;;;8.20;82.40;;;;;;5010176;28;20481;-66
2022/04/04 09:49:06;;;;;;;6.30;5.70;;;8.30;81.90;;;;;;5011019;28;20450;-68
2022/04/04 09:51:39;;;;;;;8.17;6.50;;;8.30;82.60;;;;;;5010114;28;20472;-69
2022/04/04 09:54:08;;;;;;;6.37;5.77;;;8.40;83.60;;;;;;5009671;28;20541;-68
2022/04/04 09:56:35;;;;;;;6.70;6.10;;;8.40;80.40;;;;;;5010465;28;20525;-67
2022/04/04 09:59:02;;;;;;;6.57;5.97;;;8.70;81.30;;;;;;5010519;28;20445;-69
2022/04/04 10:01:32;;;;;;;6.03;5.43;;;8.70;80.30;;;;;;5009962;28;20474;-66
2022/04/04 10:03:59;;;;;;;6.20;5.60;;;8.80;83.50;;;;;;5010056;28;20453;-66
2022/04/04 10:06:28;;;;;;;6.70;6.10;;;9.10;83.20;;;;;;5009486;28;20478;-66
2022/04/04 10:08:58;;;;;;;6.30;5.53;;;9.00;82.10;;;;;;5010415;28;20454;-66
2022/04/04 10:11:25;;;;;;;6.93;6.17;;;9.00;84.00;;;;;;5009689;28;20465;-67
2022/04/04 10:13:53;;;;;;;6.60;6.00;;;9.30;83.50;;;;;;5010316;28;20445;-67
2022/04/04 10:16:22;;;;;;;6.73;5.67;;;9.50;83.80;;;;;;5009699;28;21008;-66
2022/04/04 10:18:49;;;;;;;7.93;7.17;;;9.70;81.70;;;;;;5010441;28;20482;-67
2022/04/04 10:21:17;;;;;;;7.60;6.90;;;9.90;81.10;;;;;;5010089;28;20465;-68
2022/04/04 10:23:45;;;;;;;6.90;6.30;;;9.70;82.40;;;;;;5009948;28;20450;-65
2022/04/04 10:26:15;;;;;;;9.00;6.10;;;9.50;82.00;;;;;;5009275;28;20544;-66
2022/04/04 10:28:44;;;;;;;7.07;6.37;;;9.60;81.00;;;;;;5010204;28;20460;-67
2022/04/04 10:31:15;;;;;;;8.40;6.93;;;9.80;82.80;;;;;;5010166;28;21050;-68
2022/04/04 10:33:43;;;;;;;7.97;6.80;;;9.70;79.90;;;;;;5009176;28;20948;-66
2022/04/04 10:36:13;;;;;;;7.03;6.33;;;9.80;84.00;;;;;;5009707;28;20457;-66
2022/04/04 10:38:47;;;;;;;7.40;6.70;;;9.90;80.90;;;;;;5010002;28;20972;-66
2022/04/04 10:41:18;;;;;;;7.50;6.70;;;9.80;81.00;;;;;;5009957;28;20814;-67
2022/04/04 10:43:47;;;;;;;5.80;5.30;;;9.70;82.80;;;;;;5009604;28;20940;-67
2022/04/04 10:46:15;;;;;;;6.40;5.80;;;9.80;82.90;;;;;;5009418;28;21004;-67
2022/04/04 10:48:47;;;;;;;8.60;7.23;;;9.90;82.70;;;;;;5010011;28;20456;-66
2022/04/04 10:51:17;;;;;;;8.53;7.00;;;9.60;81.90;;;;;;5009814;28;20560;-67
2022/04/04 10:53:48;;;;;;;10.43;6.50;;;9.40;83.50;;;;;;5009442;28;20450;-65
2022/04/04 10:56:22;;;;;;;7.40;6.70;;;9.10;85.30;;;;;;5009094;28;20480;-67
2022/04/04 10:58:51;;;;;;;7.97;6.50;;;9.50;84.90;;;;;;5009982;28;20464;-67
2022/04/04 11:01:20;;;;;;;6.90;6.20;;;9.90;85.30;;;;;;5009703;28;20565;-66
2022/04/04 11:04:01;;;;;;;7.90;7.10;;;9.50;81.60;;;;;;5009302;28;20450;-66
2022/04/04 11:09:37;;;;;;;6.43;5.73;;;9.90;82.70;;;;;;5009637;28;20421;-67
2022/04/04 11:12:12;;;;;;;7.13;6.03;;;10.60;76.80;;;;;;5009275;28;20511;-67
2022/04/04 11:14:54;;;;;;;7.53;5.70;;;11.30;77.00;;;;;;5008759;28;20828;-67
2022/04/04 11:17:30;;;;;;;4.53;4.13;;;11.60;72.90;;;;;;5009680;28;20450;-67
2022/04/04 11:20:02;;;;;;;5.67;5.00;;;11.50;72.10;;;;;;5009512;28;20545;-68
2022/04/04 11:22:30;;;;;;;6.17;5.57;;;11.20;73.10;;;;;;5009240;28;20493;-67
2022/04/04 11:25:03;;;;;;;6.13;5.53;;;11.50;73.50;;;;;;5008625;28;20446;-65
2022/04/04 11:27:33;;;;;;;7.53;6.03;;;12.10;71.70;;;;;;5009627;28;20571;-67
2022/04/04 11:30:00;;;;;;;5.53;5.00;;;12.30;71.60;;;;;;5009418;28;20980;-66
2022/04/04 11:32:31;;;;;;;5.33;4.80;;;12.20;71.20;;;;;;5008793;28;20472;-63
2022/04/04 11:35:01;;;;;;;6.03;5.23;;;11.80;70.60;;;;;;5010187;28;20543;-65
2022/04/04 11:37:29;;;;;;;6.00;4.50;;;11.70;74.20;;;;;;5010200;28;20437;-67
2022/04/04 11:40:03;;;;;;;5.93;4.60;;;12.00;75.60;;;;;;5011627;28;20479;-66
2022/04/04 11:42:41;;;;;;;4.97;4.33;;;12.30;71.80;;;;;;5026575;28;20453;-66
2022/04/04 11:45:08;;;;;;;7.77;5.53;;;12.20;70.00;;;;;;5017500;28;20445;-67
2022/04/04 11:47:39;;;;;;;5.63;4.80;;;12.10;72.40;;;;;;5012468;28;21035;-67
2022/04/04 11:50:07;;;;;;;7.13;5.50;;;11.90;67.90;;;;;;5012694;28;20453;-67
2022/04/04 11:52:46;;;;;;;7.40;5.27;;;11.30;72.90;;;;;;5012307;28;20462;-66
2022/04/04 11:55:16;;;;;;;5.40;4.90;;;11.40;73.40;;;;;;5012118;28;20442;-66
2022/04/04 11:57:46;;;;;;;7.63;5.00;;;11.80;71.80;;;;;;5012441;28;20448;-67
2022/04/04 12:00:16;;;;;;;5.53;5.03;;;12.10;70.80;;;;;;5012729;28;20449;-67
2022/04/04 12:02:43;;;;;;;7.77;5.23;;;12.30;72.80;;;;;;5011906;28;20466;-67
2022/04/04 12:05:14;;;;;;;5.90;4.60;;;12.50;70.30;;;;;;5011939;28;20454;-67
2022/04/04 12:07:41;;;;;;;5.63;4.50;;;12.60;69.90;;;;;;5012381;28;20496;-67
2022/04/04 12:10:09;;;;;;;6.97;4.63;;;11.90;67.00;;;;;;5012520;28;20897;-67
2022/04/04 12:12:36;;;;;;;7.93;4.60;;;12.10;70.60;;;;;;5011715;28;20474;-64
2022/04/04 12:15:05;;;;;;;7.00;4.63;;;12.00;67.20;;;;;;5011677;28;20936;-66
2022/04/04 12:17:33;;;;;;;5.90;4.67;;;11.60;68.80;;;;;;5012219;28;21027;-67
2022/04/04 12:20:00;;;;;;;5.60;4.60;;;11.80;70.20;;;;;;5009467;28;20939;-69
2022/04/04 12:25:18;;;;;;;5.30;4.67;;;12.80;68.60;;;;;;5009571;28;20440;-65
2022/04/04 12:27:59;;;;;;;6.00;4.43;;;12.50;66.90;;;;;;5008332;28;20487;-66
2022/04/04 12:30:33;;;;;;;6.97;5.23;;;11.80;67.40;;;;;;5011753;28;21094;-64
2022/04/04 12:33:14;;;;;;;7.63;5.10;;;11.10;69.20;;;;;;5010905;28;20471;-66
2022/04/04 12:35:45;;;;;;;5.10;4.63;;;11.40;72.40;;;;;;5003291;28;20458;-66
2022/04/04 12:38:24;;;;;;;5.77;5.17;;;12.20;71.80;;;;;;5004319;28;21120;-66
2022/04/04 12:41:06;;;;;;;5.40;4.50;;;12.20;68.30;;;;;;5011749;28;20499;-65
2022/04/04 12:43:34;;;;;;;6.00;4.67;;;12.30;70.10;;;;;;5011292;28;20504;-65
2022/04/04 12:46:02;;;;;;;5.50;4.57;;;12.80;69.30;;;;;;5009260;28;20437;-66
2022/04/04 12:48:37;;;;;;;6.07;4.70;;;12.90;67.40;;;;;;5011393;28;20490;-66
2022/04/04 12:51:05;;;;;;;5.40;4.90;;;13.10;68.30;;;;;;5011400;28;20453;-66
2022/04/04 12:53:48;;;;;;;5.80;4.90;;;13.30;67.10;;;;;;5011315;28;20544;-66